Garden Plain, Kansas
Current Conditions -  °F | °C
As of 12:53 PM on Friday 24 Oct 2014 (Local Time) from KICT Reporting Station
Broken Clouds Broken Clouds  
Wind Chill: 24°   Ceiling: 30000
Heat Index: 24°   Visibility: 10mi
Dew Point: 17°   Wind: 13mph
Humidity: 64%   Direction: 190°S
Pressure: 30.05"   Gusts: NA
Location:  37.66°N, 97.68°W
Report Text: KICT 241753Z 19011KT 10SM SCT250 BKN300 24/17 A3005 RMK AO2 SLP167 T02390167 10239 20128 58005
Loading
Personal Weather Stations






























Interactive Weather Map
Tropical Storm Tracking
New forecast layout! Learn more

10-Day Weather Forecast

Advertisements
Track Severe Weather on mobile